Kingston, West Virginia
Current Conditions -  °F | °C
As of 6:28 PM on Thursday 27 Nov 2014 (Local Time) from KBKW Reporting Station
Light Snow Light Snow  
Wind Chill: 16°   Ceiling: 3800
Heat Index: 26°   Visibility: 4mi
Dew Point: 21°   Wind: 12mph
Humidity: 81%   Direction: 300°WNW
Pressure: 30.2"   Gusts: NA
Location:  37.9561°N, 81.2443°W
Report Text: KBKW 272328Z AUTO 30010KT 4SM -SN SCT009 BKN038 OVC045 M03/M06 A3020 RMK AO2 P0000 T10331061
Loading
Personal Weather Stations






























Interactive Weather Map New forecast layout! Learn more

10-Day Weather Forecast

Advertisements
Track Severe Weather on mobile